Time;durP1;ratioP1;P1;durP2;ratioP2;P2;SDS_P1;SDS_P2;PMS_P1;PMS_P2;Temp;Humidity;BMP_temperature;BMP_pressure;BME280_temperature;BME280_humidity;BME280_pressure;Samples;Min_cycle;Max_cycle;Signal;HPM_P1;HPM_P2
2022/09/26 00:01:54;;;;;;;6.43;2.88;;;17.00;94.90;;;;;;4974113;28;20026;-71
2022/09/26 00:04:26;;;;;;;5.53;2.20;;;17.00;94.90;;;;;;4974267;28;20022;-72
2022/09/26 00:06:55;;;;;;;5.20;1.90;;;17.00;94.90;;;;;;4973979;28;20031;-72
2022/09/26 00:09:22;;;;;;;5.35;2.78;;;17.00;95.00;;;;;;4973922;28;20023;-72
2022/09/26 00:11:48;;;;;;;5.05;2.47;;;17.00;95.20;;;;;;4974162;28;20046;-71
2022/09/26 00:14:17;;;;;;;3.95;1.92;;;17.00;94.90;;;;;;4978021;28;20030;-70
2022/09/26 00:16:43;;;;;;;11.35;3.03;;;17.00;94.80;;;;;;4977947;28;20030;-71
2022/09/26 00:19:10;;;;;;;7.35;2.70;;;17.00;94.80;;;;;;4977782;28;20028;-72
2022/09/26 00:21:36;;;;;;;7.47;2.35;;;17.00;94.90;;;;;;4977562;28;20551;-71
2022/09/26 00:24:03;;;;;;;8.95;2.42;;;17.00;95.00;;;;;;4977714;28;20046;-71
2022/09/26 00:26:30;;;;;;;14.15;2.28;;;17.00;95.00;;;;;;4977753;28;20389;-72
2022/09/26 00:28:57;;;;;;;8.63;2.80;;;16.90;95.00;;;;;;4977665;28;20023;-73
2022/09/26 00:31:28;;;;;;;6.53;2.25;;;16.90;95.10;;;;;;4977581;28;20110;-73
2022/09/26 00:33:55;;;;;;;10.00;3.20;;;16.90;95.10;;;;;;4977211;28;20027;-72
2022/09/26 00:36:21;;;;;;;9.10;2.00;;;16.90;95.00;;;;;;4977432;28;20082;-72
2022/09/26 00:38:46;;;;;;;6.30;2.60;;;16.90;95.00;;;;;;4977668;28;20058;-71
2022/09/26 00:41:13;;;;;;;5.53;2.92;;;16.90;95.10;;;;;;4977393;28;20042;-72
2022/09/26 00:43:47;;;;;;;4.75;1.90;;;16.90;95.10;;;;;;4976904;28;20027;-70
2022/09/26 00:46:34;;;;;;;4.28;2.22;;;16.90;95.10;;;;;;4976768;28;20031;-71
2022/09/26 00:49:03;;;;;;;5.97;2.17;;;16.90;95.10;;;;;;4975967;28;20030;-71
2022/09/26 00:51:28;;;;;;;6.43;2.30;;;16.90;95.20;;;;;;4975604;28;20503;-72
2022/09/26 00:53:55;;;;;;;3.75;2.17;;;16.90;95.10;;;;;;4974943;28;20031;-72
2022/09/26 00:56:29;;;;;;;5.57;1.98;;;16.90;95.10;;;;;;4975230;28;20047;-72
2022/09/26 00:59:03;;;;;;;3.60;2.17;;;16.90;95.10;;;;;;4973642;28;20041;-73
2022/09/26 01:01:30;;;;;;;4.63;2.00;;;16.90;95.00;;;;;;4972770;28;20100;-71
2022/09/26 01:03:57;;;;;;;6.15;2.42;;;16.90;95.00;;;;;;4972364;28;20041;-71
2022/09/26 01:06:23;;;;;;;5.57;2.20;;;16.90;94.90;;;;;;4975020;28;20054;-70
2022/09/26 01:09:15;;;;;;;4.18;2.30;;;16.80;94.90;;;;;;4975353;28;20102;-71
2022/09/26 01:11:42;;;;;;;5.63;1.88;;;16.80;94.90;;;;;;4974823;28;20189;-72
2022/09/26 01:14:10;;;;;;;4.72;2.67;;;16.80;94.90;;;;;;4975136;28;20094;-71
2022/09/26 01:16:41;;;;;;;4.07;2.13;;;16.80;94.90;;;;;;4974781;28;20022;-71
2022/09/26 01:19:35;;;;;;;4.97;2.78;;;16.80;94.90;;;;;;4974202;28;20022;-73
2022/09/26 01:22:09;;;;;;;5.43;2.40;;;16.80;94.90;;;;;;4974049;28;20038;-71
2022/09/26 01:24:55;;;;;;;9.60;2.47;;;16.70;95.00;;;;;;4974092;28;20037;-72
2022/09/26 01:27:53;;;;;;;4.70;2.22;;;16.70;95.00;;;;;;4974202;28;20031;-73
2022/09/26 01:30:21;;;;;;;5.10;1.90;;;16.70;94.90;;;;;;4974002;28;20215;-71
2022/09/26 01:32:56;;;;;;;6.43;2.28;;;16.70;94.80;;;;;;4974675;28;20090;-72
2022/09/26 01:35:43;;;;;;;8.32;2.38;;;16.70;94.90;;;;;;4974035;28;20027;-72
2022/09/26 01:38:29;;;;;;;3.22;1.65;;;16.60;94.90;;;;;;4975009;28;20172;-72
2022/09/26 01:41:13;;;;;;;7.88;2.60;;;16.60;94.80;;;;;;4974769;28;20038;-72
2022/09/26 01:44:05;;;;;;;7.20;2.35;;;16.60;94.80;;;;;;4974216;28;20027;-73
2022/09/26 01:46:57;;;;;;;4.95;1.90;;;16.60;94.80;;;;;;4974583;28;20030;-73
2022/09/26 01:49:48;;;;;;;6.05;2.10;;;16.50;94.70;;;;;;4971762;28;20046;-72
2022/09/26 01:52:36;;;;;;;3.75;2.13;;;16.50;94.70;;;;;;4974648;28;20027;-72
2022/09/26 01:55:13;;;;;;;3.40;1.83;;;16.50;94.70;;;;;;4974166;28;20054;-71
2022/09/26 01:57:48;;;;;;;5.25;2.10;;;16.50;94.70;;;;;;4974534;28;20031;-73
2022/09/26 02:00:14;;;;;;;3.42;1.90;;;16.40;94.80;;;;;;4974459;28;20031;-72
2022/09/26 02:02:43;;;;;;;4.75;2.20;;;16.40;94.90;;;;;;4974520;28;20034;-73
2022/09/26 02:05:21;;;;;;;3.13;1.98;;;16.40;94.90;;;;;;4974552;28;20397;-72
2022/09/26 02:07:55;;;;;;;8.68;2.60;;;16.40;94.90;;;;;;4974562;28;20114;-73
2022/09/26 02:10:49;;;;;;;4.47;2.10;;;16.40;94.80;;;;;;4975093;28;20061;-70
2022/09/26 02:13:38;;;;;;;5.07;2.17;;;16.40;94.70;;;;;;4974065;28;20458;-69
2022/09/26 02:16:08;;;;;;;10.75;2.65;;;16.40;94.70;;;;;;4975604;28;20472;-71
2022/09/26 02:18:45;;;;;;;7.07;2.50;;;16.30;94.70;;;;;;4975569;28;20130;-73
2022/09/26 02:21:16;;;;;;;6.82;2.45;;;16.30;94.70;;;;;;4975564;28;20034;-72
2022/09/26 02:23:42;;;;;;;10.88;2.30;;;16.30;94.70;;;;;;4975447;28;20031;-73
2022/09/26 02:26:08;;;;;;;4.85;2.25;;;16.30;94.70;;;;;;4975270;28;20023;-73
2022/09/26 02:28:34;;;;;;;6.72;2.78;;;16.30;94.70;;;;;;4975542;28;20392;-73
2022/09/26 02:31:03;;;;;;;11.30;2.78;;;16.30;94.70;;;;;;4975833;28;20035;-71
2022/09/26 02:33:29;;;;;;;5.70;2.70;;;16.30;94.80;;;;;;4975251;28;20031;-72
2022/09/26 02:35:55;;;;;;;5.82;2.70;;;16.30;94.80;;;;;;4974564;28;20094;-72
2022/09/26 02:38:23;;;;;;;5.32;2.63;;;16.30;94.80;;;;;;4974038;28;20114;-71
2022/09/26 02:41:16;;;;;;;8.43;2.53;;;16.30;94.70;;;;;;4974243;28;20043;-73
2022/09/26 02:44:00;;;;;;;5.43;2.50;;;16.30;94.70;;;;;;4974944;28;20034;-73
2022/09/26 02:46:37;;;;;;;5.13;2.45;;;16.20;94.60;;;;;;4974024;28;20078;-72
2022/09/26 02:49:15;;;;;;;4.88;2.67;;;16.20;94.50;;;;;;4974983;28;20034;-73
2022/09/26 02:52:10;;;;;;;5.57;2.22;;;16.20;94.40;;;;;;4974673;28;20038;-73
2022/09/26 02:55:01;;;;;;;4.63;1.90;;;16.20;94.40;;;;;;4955625;28;20035;-73
2022/09/26 02:58:02;;;;;;;4.35;2.22;;;16.20;94.50;;;;;;4974906;28;20086;-73
2022/09/26 03:00:40;;;;;;;6.60;2.20;;;16.10;94.40;;;;;;4967206;28;20047;-73
2022/09/26 03:03:38;;;;;;;4.47;2.28;;;16.10;94.40;;;;;;4974744;28;20023;-72
2022/09/26 03:06:07;;;;;;;6.03;2.30;;;16.10;94.40;;;;;;4974574;28;20026;-73
2022/09/26 03:08:38;;;;;;;2.97;1.88;;;16.10;94.50;;;;;;4974514;28;20026;-72
2022/09/26 03:11:07;;;;;;;5.15;2.38;;;16.10;94.50;;;;;;4974385;28;20031;-71
2022/09/26 03:13:37;;;;;;;4.38;2.08;;;16.10;94.50;;;;;;4974716;28;20026;-73
2022/09/26 03:16:05;;;;;;;5.18;2.20;;;16.10;94.50;;;;;;4974816;28;20031;-72
2022/09/26 03:18:48;;;;;;;7.05;2.55;;;16.10;94.70;;;;;;4974609;28;20023;-73
2022/09/26 03:21:14;;;;;;;2.80;2.00;;;16.00;94.70;;;;;;4974596;28;20126;-72
2022/09/26 03:23:41;;;;;;;4.47;2.42;;;16.00;94.70;;;;;;4974396;28;20094;-73
2022/09/26 03:26:10;;;;;;;3.63;2.40;;;16.00;94.70;;;;;;4974703;28;20432;-72
2022/09/26 03:28:36;;;;;;;6.32;2.80;;;16.10;94.80;;;;;;4974327;28;20027;-73
2022/09/26 03:31:02;;;;;;;8.73;3.25;;;16.10;95.00;;;;;;4974407;28;20026;-71
2022/09/26 03:33:28;;;;;;;15.65;4.85;;;16.10;95.00;;;;;;4974364;28;20084;-73
2022/09/26 03:35:53;;;;;;;14.48;6.13;;;16.10;95.00;;;;;;4974070;28;20055;-73
2022/09/26 03:38:19;;;;;;;25.65;6.18;;;16.10;95.00;;;;;;4974211;28;20031;-73
2022/09/26 03:40:45;;;;;;;21.48;5.78;;;16.10;95.20;;;;;;4973975;28;20477;-72
2022/09/26 03:43:12;;;;;;;25.92;6.70;;;16.10;95.30;;;;;;4974350;28;20030;-73
2022/09/26 03:45:37;;;;;;;15.18;6.18;;;16.10;95.40;;;;;;4974182;28;20030;-73
2022/09/26 03:48:05;;;;;;;52.35;8.48;;;16.10;95.40;;;;;;4973694;28;20038;-72
2022/09/26 03:50:32;;;;;;;27.05;8.43;;;16.10;95.50;;;;;;4974287;28;20508;-72
2022/09/26 03:52:59;;;;;;;10.40;7.50;;;16.10;95.60;;;;;;4974078;28;20058;-73
2022/09/26 03:55:24;;;;;;;13.68;6.20;;;16.10;95.60;;;;;;4973886;28;20038;-72
2022/09/26 03:57:50;;;;;;;8.45;4.60;;;16.10;95.60;;;;;;4974249;28;20035;-72
2022/09/26 04:00:16;;;;;;;8.00;3.33;;;16.20;95.60;;;;;;4974046;28;20035;-72
2022/09/26 04:02:42;;;;;;;4.65;3.10;;;16.20;95.60;;;;;;4973994;28;20028;-71
2022/09/26 04:05:08;;;;;;;6.85;2.88;;;16.20;95.40;;;;;;4973887;28;20066;-71
2022/09/26 04:07:34;;;;;;;6.47;3.70;;;16.20;95.30;;;;;;4974253;28;20489;-71
2022/09/26 04:10:00;;;;;;;8.20;3.60;;;16.10;95.20;;;;;;4974080;28;20034;-72
2022/09/26 04:12:26;;;;;;;6.22;4.18;;;16.10;95.20;;;;;;4974083;28;20465;-71
2022/09/26 04:14:53;;;;;;;6.70;4.28;;;16.10;95.00;;;;;;4973939;28;20023;-71
2022/09/26 04:17:18;;;;;;;8.93;4.38;;;16.10;95.00;;;;;;4973886;28;20082;-71
2022/09/26 04:19:44;;;;;;;8.10;4.80;;;16.00;94.80;;;;;;4973634;28;20469;-72
2022/09/26 04:22:10;;;;;;;9.48;4.57;;;16.00;94.80;;;;;;4973716;28;20027;-71
2022/09/26 04:24:35;;;;;;;8.73;5.38;;;16.00;94.80;;;;;;4973698;28;20143;-72
2022/09/26 04:27:03;;;;;;;8.35;4.60;;;16.00;94.90;;;;;;4973772;28;20109;-73
2022/09/26 04:29:28;;;;;;;6.30;4.20;;;16.00;94.90;;;;;;4973676;28;20513;-73
2022/09/26 04:31:54;;;;;;;6.32;4.47;;;16.00;94.90;;;;;;4974523;28;20077;-74
2022/09/26 04:34:23;;;;;;;7.95;4.45;;;16.00;95.00;;;;;;4974138;28;20030;-73
2022/09/26 04:36:50;;;;;;;6.55;4.32;;;16.00;95.00;;;;;;4973398;28;20082;-73
2022/09/26 04:39:16;;;;;;;6.90;4.50;;;16.00;95.00;;;;;;4973655;28;20054;-73
2022/09/26 04:41:42;;;;;;;7.20;4.50;;;16.00;95.10;;;;;;4973509;28;20567;-72
2022/09/26 04:44:09;;;;;;;7.03;4.30;;;16.00;95.20;;;;;;4973137;28;20027;-73
2022/09/26 04:46:36;;;;;;;6.40;4.15;;;16.00;95.20;;;;;;4972551;28;20026;-73
2022/09/26 04:49:02;;;;;;;7.05;4.03;;;16.00;95.20;;;;;;4972978;28;20113;-73
2022/09/26 04:51:30;;;;;;;10.35;3.90;;;16.00;95.20;;;;;;4973228;28;20023;-72
2022/09/26 04:53:56;;;;;;;6.20;4.03;;;16.00;95.40;;;;;;4972734;28;20058;-71
2022/09/26 04:56:24;;;;;;;5.10;3.45;;;16.00;95.10;;;;;;4972760;28;20023;-72
2022/09/26 04:58:50;;;;;;;4.45;3.50;;;16.00;95.20;;;;;;4973016;28;20090;-72
2022/09/26 05:01:19;;;;;;;4.43;3.38;;;16.00;95.10;;;;;;4976602;28;20042;-73
2022/09/26 05:03:45;;;;;;;5.90;3.47;;;16.00;95.10;;;;;;4976179;28;20034;-74
2022/09/26 05:06:12;;;;;;;5.90;3.30;;;16.00;95.00;;;;;;4976427;28;20077;-73
2022/09/26 05:08:45;;;;;;;9.20;3.50;;;16.00;95.00;;;;;;4976309;28;20031;-72
2022/09/26 05:11:11;;;;;;;4.70;3.60;;;16.00;94.90;;;;;;4976120;28;20070;-73
2022/09/26 05:13:37;;;;;;;6.10;3.28;;;16.00;94.90;;;;;;4976221;28;20102;-73
2022/09/26 05:16:05;;;;;;;7.13;3.72;;;16.00;94.90;;;;;;4976545;28;20038;-73
2022/09/26 05:18:32;;;;;;;5.70;3.30;;;16.00;94.90;;;;;;4976425;28;20475;-73
2022/09/26 05:21:00;;;;;;;7.22;3.28;;;16.00;94.90;;;;;;4976748;28;20122;-71
2022/09/26 05:26:26;;;;;;;7.25;3.53;;;16.00;95.00;;;;;;4976811;28;20125;-72
2022/09/26 05:29:03;;;;;;;10.60;4.65;;;16.00;95.00;;;;;;4976614;28;20035;-73
2022/09/26 05:31:35;;;;;;;6.50;3.40;;;15.90;94.90;;;;;;4976510;28;20018;-73
2022/09/26 05:34:03;;;;;;;5.45;3.88;;;16.00;95.30;;;;;;4976451;28;20460;-73
2022/09/26 05:36:29;;;;;;;6.28;3.83;;;16.00;95.00;;;;;;4976245;28;20046;-72
2022/09/26 05:38:55;;;;;;;12.00;3.53;;;16.00;95.00;;;;;;4975640;28;20035;-72
2022/09/26 05:41:20;;;;;;;4.50;3.13;;;16.00;95.10;;;;;;4975778;28;20035;-73
2022/09/26 05:43:46;;;;;;;4.30;3.25;;;16.00;95.10;;;;;;4975549;28;20022;-72
2022/09/26 05:46:13;;;;;;;5.10;3.35;;;16.00;95.10;;;;;;4975960;28;20033;-73
2022/09/26 05:48:39;;;;;;;6.00;3.47;;;16.00;95.40;;;;;;4975483;28;20023;-71
2022/09/26 05:51:08;;;;;;;5.05;3.10;;;16.00;95.10;;;;;;4976258;28;20031;-73
2022/09/26 05:53:34;;;;;;;5.32;3.17;;;16.00;95.10;;;;;;4975852;28;20023;-72
2022/09/26 05:56:00;;;;;;;6.22;3.20;;;16.00;95.10;;;;;;4976070;28;20397;-71
2022/09/26 05:58:31;;;;;;;6.40;3.00;;;16.00;95.10;;;;;;4975791;28;20034;-71
2022/09/26 06:01:09;;;;;;;5.85;2.90;;;16.00;95.10;;;;;;4975520;28;20445;-72
2022/09/26 06:03:35;;;;;;;9.75;3.75;;;16.10;95.20;;;;;;4975853;28;20476;-72
2022/09/26 06:06:03;;;;;;;7.45;3.40;;;16.10;95.10;;;;;;4975801;28;20042;-70
2022/09/26 06:08:29;;;;;;;7.57;3.65;;;16.10;95.20;;;;;;4975845;28;20026;-71
2022/09/26 06:11:00;;;;;;;6.50;3.25;;;16.10;95.10;;;;;;4975586;28;20066;-72
2022/09/26 06:13:25;;;;;;;4.25;3.20;;;16.10;95.10;;;;;;4975507;28;20031;-71
2022/09/26 06:15:51;;;;;;;4.32;3.42;;;16.10;95.10;;;;;;4975387;28;20487;-72
2022/09/26 06:18:17;;;;;;;7.22;4.00;;;16.20;95.10;;;;;;4975578;28;20029;-72
2022/09/26 06:20:43;;;;;;;6.15;4.30;;;16.20;95.20;;;;;;4975662;28;20515;-71
2022/09/26 06:23:08;;;;;;;6.10;5.50;;;16.20;95.30;;;;;;4975391;28;20023;-72
2022/09/26 06:25:34;;;;;;;8.23;6.10;;;16.20;95.30;;;;;;4975616;28;20115;-71
2022/09/26 06:28:00;;;;;;;7.88;6.13;;;16.20;95.30;;;;;;4975450;28;20027;-72
2022/09/26 06:30:25;;;;;;;8.50;6.38;;;16.30;95.40;;;;;;4975398;28;20019;-72
2022/09/26 06:32:52;;;;;;;11.07;7.47;;;16.30;95.50;;;;;;4975484;28;20445;-72
2022/09/26 06:35:18;;;;;;;7.75;6.38;;;16.30;95.60;;;;;;4975534;28;20050;-71
2022/09/26 06:37:44;;;;;;;11.35;7.20;;;16.30;95.60;;;;;;4975179;28;20090;-71
2022/09/26 06:40:10;;;;;;;12.45;7.05;;;16.30;95.60;;;;;;4975458;28;20038;-72
2022/09/26 06:42:37;;;;;;;8.77;6.45;;;16.30;95.60;;;;;;4975173;28;20019;-71
2022/09/26 06:45:07;;;;;;;11.10;6.10;;;16.40;95.60;;;;;;4975015;28;20170;-72
2022/09/26 06:47:34;;;;;;;6.28;4.82;;;16.40;95.70;;;;;;4975231;28;20042;-72
2022/09/26 06:50:00;;;;;;;13.20;4.25;;;16.40;95.60;;;;;;4975125;28;20030;-71
2022/09/26 06:52:28;;;;;;;4.70;3.92;;;16.40;95.50;;;;;;4975133;28;20133;-71
2022/09/26 06:54:54;;;;;;;6.25;3.95;;;16.40;95.50;;;;;;4974695;28;20027;-71
2022/09/26 06:57:20;;;;;;;9.55;4.65;;;16.50;95.50;;;;;;4973492;28;20037;-71
2022/09/26 06:59:46;;;;;;;8.90;4.80;;;16.40;95.40;;;;;;4974543;28;20109;-72
2022/09/26 07:02:12;;;;;;;6.57;4.18;;;16.40;95.40;;;;;;4974169;28;20161;-70
2022/09/26 07:04:37;;;;;;;7.35;4.95;;;16.50;95.40;;;;;;4974734;28;20019;-71
2022/09/26 07:07:03;;;;;;;10.90;5.78;;;16.50;95.40;;;;;;4974160;28;20035;-72
2022/09/26 07:09:29;;;;;;;7.90;6.00;;;16.50;95.50;;;;;;4974238;28;20031;-72
2022/09/26 07:11:55;;;;;;;9.82;5.95;;;16.60;95.60;;;;;;4974553;28;20027;-72
2022/09/26 07:14:21;;;;;;;6.05;5.05;;;16.60;95.60;;;;;;4972515;28;20519;-71
2022/09/26 07:16:49;;;;;;;7.10;4.70;;;16.60;95.60;;;;;;4974081;28;20093;-71
2022/09/26 07:19:15;;;;;;;6.20;5.22;;;16.70;95.50;;;;;;4974395;28;20477;-71
2022/09/26 07:21:41;;;;;;;8.50;6.40;;;16.70;95.50;;;;;;4973476;28;20043;-71
2022/09/26 07:24:07;;;;;;;8.40;5.93;;;16.80;95.40;;;;;;4973901;28;20027;-72
2022/09/26 07:26:33;;;;;;;6.82;5.25;;;16.80;95.30;;;;;;4972307;28;20039;-71
2022/09/26 07:29:00;;;;;;;8.85;6.35;;;16.90;95.20;;;;;;4974127;28;20561;-72
2022/09/26 07:31:26;;;;;;;6.70;6.05;;;17.00;95.30;;;;;;4973967;28;20481;-73
2022/09/26 07:33:52;;;;;;;7.25;6.25;;;17.00;95.30;;;;;;4980667;28;20026;-72
2022/09/26 07:36:19;;;;;;;6.28;5.35;;;17.10;95.40;;;;;;4992905;28;20050;-73
2022/09/26 07:38:49;;;;;;;5.63;5.13;;;17.10;95.30;;;;;;4993238;28;20030;-73
2022/09/26 07:41:15;;;;;;;4.82;4.05;;;17.10;95.10;;;;;;4992870;28;20042;-71
2022/09/26 07:43:41;;;;;;;7.57;4.22;;;17.20;95.10;;;;;;4993181;28;20069;-72
2022/09/26 07:51:37;;;;;;;6.68;4.03;;;17.30;95.00;;;;;;4973685;28;20045;-73
2022/09/26 07:54:04;;;;;;;5.03;4.25;;;17.30;94.70;;;;;;4973796;28;20031;-72
2022/09/26 07:56:32;;;;;;;4.88;3.92;;;17.30;94.70;;;;;;4973744;28;20019;-72
2022/09/26 07:59:00;;;;;;;5.65;3.70;;;17.40;94.70;;;;;;4974103;28;20027;-72
2022/09/26 08:01:25;;;;;;;5.85;3.85;;;17.40;94.60;;;;;;4973318;28;20039;-72
2022/09/26 08:03:53;;;;;;;6.47;4.55;;;17.50;94.80;;;;;;4973620;28;20034;-72
2022/09/26 08:06:19;;;;;;;6.68;3.33;;;17.50;94.60;;;;;;4973341;28;20031;-72
2022/09/26 08:08:47;;;;;;;5.13;3.58;;;17.60;94.50;;;;;;4973893;28;20019;-72
2022/09/26 08:11:17;;;;;;;7.00;3.78;;;17.60;94.40;;;;;;4973680;28;20069;-72
2022/09/26 08:13:44;;;;;;;4.78;3.70;;;17.60;94.40;;;;;;4973888;28;20370;-72
2022/09/26 08:16:11;;;;;;;5.68;3.42;;;17.60;94.40;;;;;;4974107;28;20031;-72
2022/09/26 08:18:37;;;;;;;3.85;3.28;;;17.60;94.80;;;;;;4973561;28;20023;-71
2022/09/26 08:21:05;;;;;;;3.90;3.15;;;17.70;94.60;;;;;;4973536;28;20046;-72
2022/09/26 08:23:32;;;;;;;4.80;2.80;;;17.80;94.50;;;;;;4973946;28;20030;-72
2022/09/26 08:26:02;;;;;;;5.15;3.13;;;17.80;94.70;;;;;;4973796;28;20034;-72
2022/09/26 08:28:28;;;;;;;3.10;2.80;;;17.80;94.30;;;;;;4973919;28;20022;-72
2022/09/26 08:30:56;;;;;;;5.85;3.50;;;17.90;94.30;;;;;;4973685;28;20034;-71
2022/09/26 08:33:23;;;;;;;6.85;3.45;;;17.90;94.40;;;;;;4974785;28;20019;-72
2022/09/26 08:35:49;;;;;;;7.03;3.35;;;17.90;94.30;;;;;;4959917;28;20090;-72
2022/09/26 08:38:15;;;;;;;3.75;2.90;;;18.00;94.40;;;;;;4977273;28;20078;-71
2022/09/26 08:41:13;;;;;;;4.93;3.10;;;18.00;94.40;;;;;;4977264;28;20397;-71
2022/09/26 08:44:15;;;;;;;6.15;3.10;;;18.10;94.30;;;;;;4974664;28;20403;-72
2022/09/26 08:47:28;;;;;;;8.40;3.10;;;18.10;94.10;;;;;;4977017;28;20023;-72
2022/09/26 08:49:54;;;;;;;4.47;2.55;;;18.20;94.00;;;;;;4966830;28;20193;-71
2022/09/26 08:52:46;;;;;;;5.25;3.00;;;18.10;93.80;;;;;;4975921;28;20035;-73
2022/09/26 08:55:14;;;;;;;;;;;18.10;93.70;;;;;;4977281;28;20033;-73
2022/09/26 08:57:46;;;;;;;4.25;3.08;;;18.10;93.70;;;;;;4976914;28;19907;-73
2022/09/26 09:00:19;;;;;;;6.43;3.45;;;18.10;93.40;;;;;;4976842;28;20035;-71
2022/09/26 09:03:08;;;;;;;3.63;2.90;;;18.10;93.40;;;;;;4977161;28;20030;-72
2022/09/26 09:06:12;;;;;;;6.55;3.30;;;18.10;93.50;;;;;;4977133;28;20481;-72
2022/09/26 09:08:42;;;;;;;4.90;3.08;;;18.10;93.40;;;;;;4977063;28;20114;-72
2022/09/26 09:11:45;;;;;;;4.05;2.95;;;18.00;93.40;;;;;;4976613;28;20027;-72
2022/09/26 09:14:34;;;;;;;4.15;3.03;;;18.00;93.30;;;;;;4976847;28;20033;-72
2022/09/26 09:17:20;;;;;;;7.85;3.50;;;18.00;93.60;;;;;;4976823;28;20026;-73
2022/09/26 09:19:49;;;;;;;5.88;3.30;;;18.00;93.70;;;;;;4976723;28;20027;-72
2022/09/26 09:22:45;;;;;;;4.65;3.60;;;17.90;93.90;;;;;;4976756;28;20074;-72
2022/09/26 09:25:16;;;;;;;3.60;3.13;;;18.00;94.00;;;;;;4975365;28;20452;-71
2022/09/26 09:28:02;;;;;;;6.18;3.30;;;18.00;94.00;;;;;;4976760;28;20548;-72
2022/09/26 09:30:40;;;;;;;4.65;3.30;;;18.00;93.90;;;;;;4976881;28;20031;-72
2022/09/26 09:33:30;;;;;;;6.55;3.97;;;18.10;93.90;;;;;;4976662;28;20023;-72
2022/09/26 09:36:01;;;;;;;5.18;3.60;;;18.10;94.00;;;;;;4976510;28;20081;-73
2022/09/26 09:38:32;;;;;;;6.43;3.53;;;18.10;94.00;;;;;;4975966;28;20027;-72
2022/09/26 09:41:23;;;;;;;5.15;3.10;;;18.20;94.00;;;;;;4976130;28;20114;-72
2022/09/26 09:44:09;;;;;;;4.95;3.60;;;18.20;94.00;;;;;;4976341;28;20026;-72
2022/09/26 09:46:39;;;;;;;4.40;3.53;;;18.20;93.90;;;;;;4975619;28;20134;-72
2022/09/26 09:49:08;;;;;;;5.65;3.30;;;18.30;93.80;;;;;;4976224;28;20031;-71
2022/09/26 09:51:57;;;;;;;4.45;3.03;;;18.30;93.70;;;;;;4976407;28;20103;-72
2022/09/26 09:55:00;;;;;;;4.10;3.10;;;18.40;93.50;;;;;;4976317;28;20031;-72
2022/09/26 09:57:28;;;;;;;3.97;2.90;;;18.50;93.50;;;;;;4975458;28;20027;-71
2022/09/26 10:00:16;;;;;;;5.68;3.33;;;18.50;93.30;;;;;;4975077;28;20138;-72
2022/09/26 10:03:04;;;;;;;5.35;3.50;;;18.60;93.20;;;;;;4975952;28;20071;-74
2022/09/26 10:05:42;;;;;;;6.57;2.80;;;18.70;93.10;;;;;;4975368;28;20027;-73
2022/09/26 10:08:39;;;;;;;3.42;3.00;;;18.80;92.80;;;;;;4974339;28;20026;-69
2022/09/26 10:11:22;;;;;;;5.47;3.33;;;19.00;92.80;;;;;;4973559;28;20073;-72
2022/09/26 10:13:54;;;;;;;4.38;3.38;;;19.10;92.60;;;;;;4975701;28;20470;-72
2022/09/26 10:16:21;;;;;;;7.28;3.45;;;19.20;92.30;;;;;;4974161;28;20428;-72
2022/09/26 10:19:07;;;;;;;4.90;3.90;;;19.40;91.60;;;;;;4974634;28;20165;-72
2022/09/26 10:21:39;;;;;;;6.03;3.90;;;19.50;91.30;;;;;;4974074;28;20042;-66
2022/09/26 10:24:20;;;;;;;5.72;4.05;;;19.60;91.10;;;;;;4972751;28;20056;-71
2022/09/26 10:26:48;;;;;;;9.23;4.28;;;19.60;90.70;;;;;;4973489;28;20019;-73
2022/09/26 10:29:24;;;;;;;9.50;3.97;;;19.60;90.60;;;;;;4972100;28;20032;-73
2022/09/26 10:31:59;;;;;;;4.20;3.70;;;19.70;90.70;;;;;;4974301;28;20026;-71
2022/09/26 10:35:00;;;;;;;7.97;3.95;;;19.60;90.80;;;;;;4974155;28;20054;-69
2022/09/26 10:37:29;;;;;;;7.47;4.00;;;19.70;90.70;;;;;;4971998;28;20054;-71
2022/09/26 10:42:45;;;;;;;8.20;4.32;;;19.80;90.70;;;;;;4973937;28;20049;-71
2022/09/26 10:45:19;;;;;;;11.23;4.18;;;19.80;90.60;;;;;;4973648;28;20030;-71
2022/09/26 10:47:50;;;;;;;7.10;3.63;;;19.90;90.60;;;;;;4973123;28;20031;-71
2022/09/26 10:50:26;;;;;;;6.43;3.33;;;19.90;90.70;;;;;;4972152;28;20513;-71
2022/09/26 10:53:00;;;;;;;4.15;3.75;;;19.90;90.50;;;;;;4973161;28;20027;-72
2022/09/26 10:55:31;;;;;;;6.65;4.10;;;19.90;90.60;;;;;;4974928;28;20101;-72
2022/09/26 10:58:01;;;;;;;6.57;3.75;;;19.80;90.50;;;;;;4973866;28;20030;-73
2022/09/26 11:00:32;;;;;;;8.05;3.50;;;19.80;90.60;;;;;;4974942;28;20030;-73
2022/09/26 11:02:59;;;;;;;5.75;4.25;;;19.80;90.60;;;;;;4974815;28;20035;-72
2022/09/26 11:08:10;;;;;;;5.50;3.60;;;19.80;90.70;;;;;;4974105;28;20033;-73
2022/09/26 11:10:40;;;;;;;10.05;3.95;;;19.80;90.80;;;;;;4971761;28;20030;-72
2022/09/26 11:13:21;;;;;;;6.78;5.05;;;19.80;90.90;;;;;;4971187;28;20049;-72
2022/09/26 11:16:00;;;;;;;6.18;5.57;;;19.80;90.70;;;;;;4970918;28;20035;-70
2022/09/26 11:18:43;;;;;;;5.68;5.18;;;19.80;90.10;;;;;;4972370;28;20095;-70
2022/09/26 11:21:30;;;;;;;7.55;4.68;;;19.80;90.00;;;;;;4971430;28;20109;-72
2022/09/26 11:24:26;;;;;;;5.95;4.55;;;19.80;89.70;;;;;;4971234;28;20065;-72
2022/09/26 11:27:10;;;;;;;5.35;4.30;;;19.80;89.90;;;;;;4971482;28;20126;-79
2022/09/26 11:30:01;;;;;;;7.80;4.13;;;19.90;90.10;;;;;;4970203;28;20033;-77
2022/09/26 11:32:39;;;;;;;4.88;3.40;;;20.00;88.50;;;;;;4971092;28;20362;-78
2022/09/26 11:35:11;;;;;;;4.45;4.05;;;20.10;87.50;;;;;;4972885;28;20051;-73
2022/09/26 11:38:05;;;;;;;4.85;3.78;;;20.20;83.80;;;;;;4973195;28;20047;-75
2022/09/26 11:40:58;;;;;;;4.00;3.45;;;20.20;83.20;;;;;;4970917;28;20045;-75
2022/09/26 11:43:37;;;;;;;5.20;3.92;;;20.30;83.20;;;;;;4972750;28;20035;-75
2022/09/26 11:46:24;;;;;;;6.43;4.15;;;20.40;83.10;;;;;;4973250;28;20030;-73
2022/09/26 11:49:20;;;;;;;4.50;4.05;;;20.40;82.40;;;;;;4972910;28;20125;-75
2022/09/26 11:52:13;;;;;;;6.50;4.20;;;20.40;82.60;;;;;;4973164;28;20054;-75
2022/09/26 11:54:45;;;;;;;6.15;3.90;;;20.40;83.40;;;;;;4972974;28;20045;-75
2022/09/26 11:57:33;;;;;;;5.25;4.53;;;20.30;83.70;;;;;;4972742;28;20105;-75
2022/09/26 12:00:26;;;;;;;5.40;4.45;;;20.30;84.10;;;;;;4972881;28;20026;-73
2022/09/26 12:03:13;;;;;;;6.55;4.30;;;20.50;84.00;;;;;;4972890;28;20085;-75
2022/09/26 12:05:51;;;;;;;4.22;3.80;;;20.60;83.90;;;;;;4972684;28;20038;-75
2022/09/26 12:08:42;;;;;;;6.75;4.53;;;20.70;82.80;;;;;;4974239;28;20054;-74
2022/09/26 12:11:42;;;;;;;5.57;5.07;;;20.90;83.30;;;;;;4977181;28;20023;-74
2022/09/26 12:14:23;;;;;;;6.90;3.75;;;20.90;82.40;;;;;;4976788;28;20111;-76
2022/09/26 12:16:57;;;;;;;6.53;3.63;;;20.90;82.30;;;;;;4976961;28;20057;-80
2022/09/26 12:19:38;;;;;;;4.30;3.90;;;21.00;82.60;;;;;;4976857;28;20548;-79
2022/09/26 12:22:27;;;;;;;5.53;4.65;;;21.10;81.50;;;;;;4975750;28;20098;-76
2022/09/26 12:24:59;;;;;;;4.18;3.85;;;21.10;81.30;;;;;;4974018;28;20039;-76
2022/09/26 12:27:32;;;;;;;5.53;4.80;;;21.00;81.20;;;;;;4975001;28;20029;-78
2022/09/26 12:30:16;;;;;;;6.35;4.80;;;21.00;81.50;;;;;;4976889;28;20023;-78
2022/09/26 12:33:04;;;;;;;6.80;5.65;;;20.90;81.10;;;;;;4976572;28;20033;-75
2022/09/26 12:35:57;;;;;;;6.43;5.25;;;20.80;81.50;;;;;;4976491;28;20019;-78
2022/09/26 12:38:52;;;;;;;8.48;5.90;;;20.70;81.90;;;;;;4976576;28;20481;-79
2022/09/26 12:41:55;;;;;;;6.05;5.45;;;20.50;82.80;;;;;;4976391;28;20035;-76
2022/09/26 12:44:27;;;;;;;;;;;20.40;83.20;;;;;;4977537;28;20122;-78
2022/09/26 12:47:31;;;;;;;8.63;7.72;;;20.40;83.90;;;;;;4976721;28;20001;-76
2022/09/26 12:50:03;;;;;;;14.65;7.93;;;20.40;84.00;;;;;;4965350;28;20122;-75
2022/09/26 12:52:40;;;;;;;10.90;9.38;;;20.30;84.50;;;;;;4976825;28;20485;-77
2022/09/26 12:55:43;;;;;;;11.35;9.07;;;20.30;85.40;;;;;;4976810;28;20094;-76
2022/09/26 12:58:32;;;;;;;9.30;8.27;;;20.20;85.30;;;;;;4975252;28;20025;-77
2022/09/26 13:01:24;;;;;;;10.02;7.97;;;20.20;85.80;;;;;;4976947;28;20039;-75
2022/09/26 13:04:17;;;;;;;9.27;7.97;;;20.20;86.00;;;;;;4977090;28;20097;-76
2022/09/26 13:07:02;;;;;;;9.93;8.93;;;20.30;85.80;;;;;;4976573;28;20033;-77
2022/09/26 13:09:57;;;;;;;11.52;6.82;;;20.40;84.80;;;;;;4976931;28;20527;-76
2022/09/26 13:12:32;;;;;;;7.13;5.57;;;20.50;85.60;;;;;;4976914;28;20442;-77
2022/09/26 13:15:10;;;;;;;8.77;6.25;;;20.70;84.60;;;;;;4976976;28;20058;-77
2022/09/26 13:17:40;;;;;;;7.97;6.82;;;20.80;84.00;;;;;;4977187;28;20429;-77
2022/09/26 13:20:35;;;;;;;8.10;6.68;;;20.90;83.70;;;;;;4975652;28;20030;-77
2022/09/26 13:23:15;;;;;;;6.43;5.78;;;20.90;83.10;;;;;;4976710;28;20023;-77
2022/09/26 13:26:16;;;;;;;7.30;5.25;;;21.00;81.80;;;;;;4976908;28;20031;-77
2022/09/26 13:28:53;;;;;;;8.82;5.30;;;21.00;81.50;;;;;;4968129;28;20070;-77
2022/09/26 13:31:25;;;;;;;6.45;4.80;;;21.10;81.70;;;;;;4976501;28;20034;-76
2022/09/26 13:34:00;;;;;;;6.97;4.55;;;21.20;80.40;;;;;;4976622;28;20027;-77
2022/09/26 13:36:29;;;;;;;7.68;4.70;;;21.20;79.40;;;;;;4976404;28;20077;-77